sensor_id;sensor_type;location;lat;lon;timestamp;P1;durP1;ratioP1;P2;durP2;ratioP2
38397;SDS011;24179;52.094;4.408;2024-01-06T00:00:44;1.50;;;0.50;;
38397;SDS011;24179;52.094;4.408;2024-01-06T00:03:45;2.90;;;0.47;;
38397;SDS011;24179;52.094;4.408;2024-01-06T00:06:46;1.47;;;0.50;;
38397;SDS011;24179;52.094;4.408;2024-01-06T00:09:46;2.23;;;0.50;;
38397;SDS011;24179;52.094;4.408;2024-01-06T00:12:47;1.67;;;0.40;;
38397;SDS011;24179;52.094;4.408;2024-01-06T00:18:49;1.30;;;0.45;;
38397;SDS011;24179;52.094;4.408;2024-01-06T00:21:50;1.33;;;0.50;;
38397;SDS011;24179;52.094;4.408;2024-01-06T00:24:50;0.50;;;0.30;;
38397;SDS011;24179;52.094;4.408;2024-01-06T00:27:51;1.33;;;0.40;;
38397;SDS011;24179;52.094;4.408;2024-01-06T00:30:51;1.27;;;0.50;;
38397;SDS011;24179;52.094;4.408;2024-01-06T00:36:53;2.03;;;0.63;;
38397;SDS011;24179;52.094;4.408;2024-01-06T00:39:54;2.73;;;1.00;;
38397;SDS011;24179;52.094;4.408;2024-01-06T00:42:55;3.07;;;0.77;;
38397;SDS011;24179;52.094;4.408;2024-01-06T00:45:55;2.13;;;0.80;;
38397;SDS011;24179;52.094;4.408;2024-01-06T00:48:56;0.77;;;0.40;;
38397;SDS011;24179;52.094;4.408;2024-01-06T00:51:56;2.23;;;0.80;;
38397;SDS011;24179;52.094;4.408;2024-01-06T00:54:57;2.30;;;0.63;;
38397;SDS011;24179;52.094;4.408;2024-01-06T00:57:57;1.77;;;0.47;;
38397;SDS011;24179;52.094;4.408;2024-01-06T01:00:58;1.90;;;0.70;;
38397;SDS011;24179;52.094;4.408;2024-01-06T01:03:58;2.77;;;0.83;;
38397;SDS011;24179;52.094;4.408;2024-01-06T01:06:59;1.97;;;0.50;;
38397;SDS011;24179;52.094;4.408;2024-01-06T01:09:59;1.40;;;0.40;;
38397;SDS011;24179;52.094;4.408;2024-01-06T01:13:00;1.60;;;0.50;;
38397;SDS011;24179;52.094;4.408;2024-01-06T01:16:01;1.57;;;0.50;;
38397;SDS011;24179;52.094;4.408;2024-01-06T01:19:03;1.80;;;0.60;;
38397;SDS011;24179;52.094;4.408;2024-01-06T01:22:03;1.83;;;0.60;;
38397;SDS011;24179;52.094;4.408;2024-01-06T01:25:04;1.03;;;0.40;;
38397;SDS011;24179;52.094;4.408;2024-01-06T01:28:08;1.67;;;0.55;;
38397;SDS011;24179;52.094;4.408;2024-01-06T01:31:08;3.23;;;0.80;;
38397;SDS011;24179;52.094;4.408;2024-01-06T01:34:09;1.53;;;0.70;;
38397;SDS011;24179;52.094;4.408;2024-01-06T01:37:10;3.33;;;0.88;;
38397;SDS011;24179;52.094;4.408;2024-01-06T01:40:10;2.53;;;0.57;;
38397;SDS011;24179;52.094;4.408;2024-01-06T01:43:20;0.87;;;0.40;;
38397;SDS011;24179;52.094;4.408;2024-01-06T01:46:21;1.08;;;0.52;;
38397;SDS011;24179;52.094;4.408;2024-01-06T01:49:22;1.57;;;0.60;;
38397;SDS011;24179;52.094;4.408;2024-01-06T01:52:23;1.40;;;0.40;;
38397;SDS011;24179;52.094;4.408;2024-01-06T01:55:23;1.00;;;0.50;;
38397;SDS011;24179;52.094;4.408;2024-01-06T01:58:24;1.30;;;0.55;;
38397;SDS011;24179;52.094;4.408;2024-01-06T02:01:25;1.23;;;0.47;;
38397;SDS011;24179;52.094;4.408;2024-01-06T02:04:25;1.80;;;0.47;;
38397;SDS011;24179;52.094;4.408;2024-01-06T02:07:26;1.30;;;0.40;;
38397;SDS011;24179;52.094;4.408;2024-01-06T02:10:27;2.13;;;0.50;;
38397;SDS011;24179;52.094;4.408;2024-01-06T02:13:35;1.20;;;0.47;;
38397;SDS011;24179;52.094;4.408;2024-01-06T02:16:36;1.60;;;0.40;;
38397;SDS011;24179;52.094;4.408;2024-01-06T02:19:37;1.93;;;0.50;;
38397;SDS011;24179;52.094;4.408;2024-01-06T02:22:38;1.30;;;0.50;;
38397;SDS011;24179;52.094;4.408;2024-01-06T02:25:38;1.90;;;0.50;;
38397;SDS011;24179;52.094;4.408;2024-01-06T02:28:39;1.60;;;0.40;;
38397;SDS011;24179;52.094;4.408;2024-01-06T02:31:40;2.73;;;0.40;;
38397;SDS011;24179;52.094;4.408;2024-01-06T02:34:40;2.10;;;0.50;;
38397;SDS011;24179;52.094;4.408;2024-01-06T02:37:41;1.73;;;0.60;;
38397;SDS011;24179;52.094;4.408;2024-01-06T02:40:41;1.93;;;0.60;;
38397;SDS011;24179;52.094;4.408;2024-01-06T02:43:42;1.30;;;0.40;;
38397;SDS011;24179;52.094;4.408;2024-01-06T02:46:43;0.60;;;0.20;;
38397;SDS011;24179;52.094;4.408;2024-01-06T02:49:43;1.17;;;0.40;;
38397;SDS011;24179;52.094;4.408;2024-01-06T02:52:44;1.30;;;0.57;;
38397;SDS011;24179;52.094;4.408;2024-01-06T02:55:45;1.63;;;0.50;;
38397;SDS011;24179;52.094;4.408;2024-01-06T02:58:45;0.93;;;0.40;;
38397;SDS011;24179;52.094;4.408;2024-01-06T03:01:46;1.00;;;0.40;;
38397;SDS011;24179;52.094;4.408;2024-01-06T03:04:47;2.20;;;0.60;;
38397;SDS011;24179;52.094;4.408;2024-01-06T03:07:47;0.83;;;0.30;;
38397;SDS011;24179;52.094;4.408;2024-01-06T03:10:48;1.20;;;0.50;;
38397;SDS011;24179;52.094;4.408;2024-01-06T03:13:49;2.47;;;0.40;;
38397;SDS011;24179;52.094;4.408;2024-01-06T03:16:50;1.53;;;0.40;;
38397;SDS011;24179;52.094;4.408;2024-01-06T03:19:51;0.97;;;0.40;;
38397;SDS011;24179;52.094;4.408;2024-01-06T03:22:52;1.40;;;0.35;;
38397;SDS011;24179;52.094;4.408;2024-01-06T03:25:52;3.03;;;0.53;;
38397;SDS011;24179;52.094;4.408;2024-01-06T03:28:54;1.30;;;0.47;;
38397;SDS011;24179;52.094;4.408;2024-01-06T03:31:54;1.77;;;0.40;;
38397;SDS011;24179;52.094;4.408;2024-01-06T03:34:55;2.03;;;0.40;;
38397;SDS011;24179;52.094;4.408;2024-01-06T03:37:55;1.93;;;0.67;;
38397;SDS011;24179;52.094;4.408;2024-01-06T03:40:56;1.70;;;0.60;;
38397;SDS011;24179;52.094;4.408;2024-01-06T03:43:57;0.80;;;0.25;;
38397;SDS011;24179;52.094;4.408;2024-01-06T03:46:59;0.85;;;0.40;;
38397;SDS011;24179;52.094;4.408;2024-01-06T03:49:59;1.17;;;0.40;;
38397;SDS011;24179;52.094;4.408;2024-01-06T03:53:00;2.08;;;0.40;;
38397;SDS011;24179;52.094;4.408;2024-01-06T03:56:01;1.70;;;0.43;;
38397;SDS011;24179;52.094;4.408;2024-01-06T03:59:03;1.42;;;0.38;;
38397;SDS011;24179;52.094;4.408;2024-01-06T04:02:03;1.13;;;0.40;;
38397;SDS011;24179;52.094;4.408;2024-01-06T04:05:04;1.40;;;0.50;;
38397;SDS011;24179;52.094;4.408;2024-01-06T04:08:05;1.45;;;0.40;;
38397;SDS011;24179;52.094;4.408;2024-01-06T04:11:06;0.98;;;0.40;;
38397;SDS011;24179;52.094;4.408;2024-01-06T04:14:06;2.87;;;0.67;;
38397;SDS011;24179;52.094;4.408;2024-01-06T04:17:07;0.60;;;0.30;;
38397;SDS011;24179;52.094;4.408;2024-01-06T04:20:08;1.50;;;0.40;;
38397;SDS011;24179;52.094;4.408;2024-01-06T04:23:12;1.05;;;0.38;;
38397;SDS011;24179;52.094;4.408;2024-01-06T04:26:13;1.37;;;0.33;;
38397;SDS011;24179;52.094;4.408;2024-01-06T04:29:13;1.70;;;0.40;;
38397;SDS011;24179;52.094;4.408;2024-01-06T04:32:14;0.77;;;0.40;;
38397;SDS011;24179;52.094;4.408;2024-01-06T04:35:14;0.60;;;0.30;;
38397;SDS011;24179;52.094;4.408;2024-01-06T04:38:15;0.97;;;0.30;;
38397;SDS011;24179;52.094;4.408;2024-01-06T04:41:16;0.73;;;0.20;;
38397;SDS011;24179;52.094;4.408;2024-01-06T04:44:19;0.47;;;0.20;;
38397;SDS011;24179;52.094;4.408;2024-01-06T04:47:20;0.57;;;0.28;;
38397;SDS011;24179;52.094;4.408;2024-01-06T04:50:21;1.80;;;0.40;;
38397;SDS011;24179;52.094;4.408;2024-01-06T04:53:21;1.00;;;0.40;;
38397;SDS011;24179;52.094;4.408;2024-01-06T04:56:22;0.87;;;0.30;;
38397;SDS011;24179;52.094;4.408;2024-01-06T04:59:23;1.07;;;0.30;;
38397;SDS011;24179;52.094;4.408;2024-01-06T05:02:23;1.27;;;0.40;;
38397;SDS011;24179;52.094;4.408;2024-01-06T05:05:24;1.57;;;0.30;;
38397;SDS011;24179;52.094;4.408;2024-01-06T05:08:24;1.47;;;0.40;;
38397;SDS011;24179;52.094;4.408;2024-01-06T05:11:25;1.70;;;0.40;;
38397;SDS011;24179;52.094;4.408;2024-01-06T05:14:25;1.03;;;0.43;;
38397;SDS011;24179;52.094;4.408;2024-01-06T05:17:26;0.80;;;0.30;;
38397;SDS011;24179;52.094;4.408;2024-01-06T05:20:26;0.80;;;0.30;;
38397;SDS011;24179;52.094;4.408;2024-01-06T05:23:27;1.70;;;0.50;;
38397;SDS011;24179;52.094;4.408;2024-01-06T05:26:29;1.05;;;0.30;;
38397;SDS011;24179;52.094;4.408;2024-01-06T05:29:29;1.53;;;0.30;;
38397;SDS011;24179;52.094;4.408;2024-01-06T05:32:30;0.80;;;0.27;;
38397;SDS011;24179;52.094;4.408;2024-01-06T05:35:30;1.03;;;0.37;;
38397;SDS011;24179;52.094;4.408;2024-01-06T05:38:31;1.03;;;0.30;;
38397;SDS011;24179;52.094;4.408;2024-01-06T05:41:36;0.80;;;0.20;;
38397;SDS011;24179;52.094;4.408;2024-01-06T05:44:39;0.63;;;0.32;;
38397;SDS011;24179;52.094;4.408;2024-01-06T05:47:39;0.67;;;0.27;;
38397;SDS011;24179;52.094;4.408;2024-01-06T05:50:40;0.87;;;0.30;;
38397;SDS011;24179;52.094;4.408;2024-01-06T05:53:41;0.90;;;0.38;;
38397;SDS011;24179;52.094;4.408;2024-01-06T05:56:44;1.38;;;0.32;;
38397;SDS011;24179;52.094;4.408;2024-01-06T05:59:45;0.57;;;0.27;;
38397;SDS011;24179;52.094;4.408;2024-01-06T06:02:46;1.20;;;0.40;;
38397;SDS011;24179;52.094;4.408;2024-01-06T06:05:46;0.50;;;0.20;;
38397;SDS011;24179;52.094;4.408;2024-01-06T06:08:47;0.63;;;0.20;;
38397;SDS011;24179;52.094;4.408;2024-01-06T06:11:48;0.50;;;0.17;;
38397;SDS011;24179;52.094;4.408;2024-01-06T06:14:49;0.73;;;0.23;;
38397;SDS011;24179;52.094;4.408;2024-01-06T06:17:49;0.63;;;0.30;;
38397;SDS011;24179;52.094;4.408;2024-01-06T06:20:50;0.20;;;0.10;;
38397;SDS011;24179;52.094;4.408;2024-01-06T06:23:50;0.60;;;0.10;;
38397;SDS011;24179;52.094;4.408;2024-01-06T06:26:51;1.00;;;0.20;;
38397;SDS011;24179;52.094;4.408;2024-01-06T06:29:52;0.60;;;0.20;;
38397;SDS011;24179;52.094;4.408;2024-01-06T06:32:53;0.52;;;0.20;;
38397;SDS011;24179;52.094;4.408;2024-01-06T06:35:53;0.40;;;0.17;;
38397;SDS011;24179;52.094;4.408;2024-01-06T06:38:54;0.90;;;0.20;;
38397;SDS011;24179;52.094;4.408;2024-01-06T06:41:55;1.10;;;0.30;;
38397;SDS011;24179;52.094;4.408;2024-01-06T06:44:55;1.00;;;0.30;;
38397;SDS011;24179;52.094;4.408;2024-01-06T06:47:56;0.80;;;0.20;;
38397;SDS011;24179;52.094;4.408;2024-01-06T06:50:56;0.40;;;0.20;;
38397;SDS011;24179;52.094;4.408;2024-01-06T06:53:57;0.90;;;0.30;;
38397;SDS011;24179;52.094;4.408;2024-01-06T06:56:58;0.57;;;0.20;;
38397;SDS011;24179;52.094;4.408;2024-01-06T06:59:59;0.83;;;0.20;;
38397;SDS011;24179;52.094;4.408;2024-01-06T07:03:00;0.65;;;0.30;;
38397;SDS011;24179;52.094;4.408;2024-01-06T07:06:01;0.85;;;0.20;;
38397;SDS011;24179;52.094;4.408;2024-01-06T07:09:02;1.63;;;0.50;;
38397;SDS011;24179;52.094;4.408;2024-01-06T07:12:04;0.57;;;0.28;;
38397;SDS011;24179;52.094;4.408;2024-01-06T07:15:05;0.70;;;0.30;;
38397;SDS011;24179;52.094;4.408;2024-01-06T07:18:06;0.90;;;0.40;;
38397;SDS011;24179;52.094;4.408;2024-01-06T07:21:07;0.75;;;0.30;;
38397;SDS011;24179;52.094;4.408;2024-01-06T07:24:08;0.37;;;0.20;;
38397;SDS011;24179;52.094;4.408;2024-01-06T07:27:08;0.70;;;0.13;;
38397;SDS011;24179;52.094;4.408;2024-01-06T07:30:09;0.20;;;0.20;;
38397;SDS011;24179;52.094;4.408;2024-01-06T07:33:10;1.05;;;0.30;;
38397;SDS011;24179;52.094;4.408;2024-01-06T07:36:11;0.50;;;0.28;;
38397;SDS011;24179;52.094;4.408;2024-01-06T07:39:12;1.03;;;0.40;;
38397;SDS011;24179;52.094;4.408;2024-01-06T07:42:12;0.83;;;0.30;;
38397;SDS011;24179;52.094;4.408;2024-01-06T07:45:13;0.90;;;0.30;;
38397;SDS011;24179;52.094;4.408;2024-01-06T07:48:13;0.93;;;0.20;;
38397;SDS011;24179;52.094;4.408;2024-01-06T07:51:15;1.63;;;0.30;;
38397;SDS011;24179;52.094;4.408;2024-01-06T07:54:15;0.68;;;0.20;;
38397;SDS011;24179;52.094;4.408;2024-01-06T07:57:16;0.40;;;0.20;;
38397;SDS011;24179;52.094;4.408;2024-01-06T08:00:17;0.77;;;0.30;;
38397;SDS011;24179;52.094;4.408;2024-01-06T08:03:17;0.73;;;0.20;;
38397;SDS011;24179;52.094;4.408;2024-01-06T08:06:18;0.40;;;0.17;;
38397;SDS011;24179;52.094;4.408;2024-01-06T08:09:19;1.17;;;0.40;;
38397;SDS011;24179;52.094;4.408;2024-01-06T08:12:19;0.20;;;0.10;;
38397;SDS011;24179;52.094;4.408;2024-01-06T08:15:20;0.97;;;0.40;;
38397;SDS011;24179;52.094;4.408;2024-01-06T08:18:20;2.33;;;0.30;;
38397;SDS011;24179;52.094;4.408;2024-01-06T08:21:21;1.05;;;0.40;;
38397;SDS011;24179;52.094;4.408;2024-01-06T08:24:22;1.10;;;0.20;;
38397;SDS011;24179;52.094;4.408;2024-01-06T08:27:23;0.90;;;0.03;;
38397;SDS011;24179;52.094;4.408;2024-01-06T08:30:23;0.80;;;0.20;;
38397;SDS011;24179;52.094;4.408;2024-01-06T08:33:24;1.17;;;0.20;;
38397;SDS011;24179;52.094;4.408;2024-01-06T08:36:25;0.50;;;0.23;;
38397;SDS011;24179;52.094;4.408;2024-01-06T08:39:25;0.77;;;0.30;;
38397;SDS011;24179;52.094;4.408;2024-01-06T08:42:26;1.90;;;0.20;;
38397;SDS011;24179;52.094;4.408;2024-01-06T08:45:27;0.40;;;0.20;;
38397;SDS011;24179;52.094;4.408;2024-01-06T08:48:28;0.80;;;0.30;;
38397;SDS011;24179;52.094;4.408;2024-01-06T08:51:28;1.13;;;0.20;;
38397;SDS011;24179;52.094;4.408;2024-01-06T08:54:31;1.27;;;0.20;;
38397;SDS011;24179;52.094;4.408;2024-01-06T09:00:32;0.50;;;0.20;;
38397;SDS011;24179;52.094;4.408;2024-01-06T09:03:33;2.43;;;0.30;;
38397;SDS011;24179;52.094;4.408;2024-01-06T09:06:34;0.43;;;0.20;;
38397;SDS011;24179;52.094;4.408;2024-01-06T09:09:34;0.53;;;0.20;;
38397;SDS011;24179;52.094;4.408;2024-01-06T09:12:35;0.67;;;0.20;;
38397;SDS011;24179;52.094;4.408;2024-01-06T09:15:35;0.93;;;0.30;;
38397;SDS011;24179;52.094;4.408;2024-01-06T09:18:36;0.90;;;0.30;;
38397;SDS011;24179;52.094;4.408;2024-01-06T09:21:37;0.20;;;0.20;;
38397;SDS011;24179;52.094;4.408;2024-01-06T09:24:37;0.57;;;0.20;;
38397;SDS011;24179;52.094;4.408;2024-01-06T09:27:38;0.60;;;0.30;;
38397;SDS011;24179;52.094;4.408;2024-01-06T09:30:38;1.50;;;0.20;;
38397;SDS011;24179;52.094;4.408;2024-01-06T09:33:39;0.77;;;0.30;;
38397;SDS011;24179;52.094;4.408;2024-01-06T09:36:39;1.27;;;0.10;;
38397;SDS011;24179;52.094;4.408;2024-01-06T09:39:40;0.73;;;0.20;;
38397;SDS011;24179;52.094;4.408;2024-01-06T09:42:40;0.10;;;0.10;;
38397;SDS011;24179;52.094;4.408;2024-01-06T09:45:41;0.90;;;0.20;;
38397;SDS011;24179;52.094;4.408;2024-01-06T09:48:42;0.90;;;0.10;;
38397;SDS011;24179;52.094;4.408;2024-01-06T09:51:43;0.25;;;0.17;;
38397;SDS011;24179;52.094;4.408;2024-01-06T09:54:53;0.82;;;0.30;;
38397;SDS011;24179;52.094;4.408;2024-01-06T09:57:54;0.20;;;0.10;;
38397;SDS011;24179;52.094;4.408;2024-01-06T10:00:56;0.43;;;0.20;;
38397;SDS011;24179;52.094;4.408;2024-01-06T10:03:56;0.77;;;0.20;;
38397;SDS011;24179;52.094;4.408;2024-01-06T10:06:57;0.73;;;0.30;;
38397;SDS011;24179;52.094;4.408;2024-01-06T10:09:58;0.47;;;0.20;;
38397;SDS011;24179;52.094;4.408;2024-01-06T10:12:58;0.97;;;0.30;;
38397;SDS011;24179;52.094;4.408;2024-01-06T10:15:59;0.90;;;0.30;;
38397;SDS011;24179;52.094;4.408;2024-01-06T10:18:59;0.27;;;0.10;;
38397;SDS011;24179;52.094;4.408;2024-01-06T10:22:00;0.50;;;0.20;;
38397;SDS011;24179;52.094;4.408;2024-01-06T10:25:06;0.30;;;0.10;;
38397;SDS011;24179;52.094;4.408;2024-01-06T10:28:11;0.90;;;0.30;;
38397;SDS011;24179;52.094;4.408;2024-01-06T10:31:13;0.82;;;0.20;;
38397;SDS011;24179;52.094;4.408;2024-01-06T10:34:14;0.33;;;0.20;;
38397;SDS011;24179;52.094;4.408;2024-01-06T10:37:15;1.05;;;0.20;;
38397;SDS011;24179;52.094;4.408;2024-01-06T10:40:17;0.50;;;0.30;;
38397;SDS011;24179;52.094;4.408;2024-01-06T10:43:18;0.33;;;0.23;;
38397;SDS011;24179;52.094;4.408;2024-01-06T10:46:19;0.88;;;0.20;;
38397;SDS011;24179;52.094;4.408;2024-01-06T10:49:20;1.30;;;0.30;;
38397;SDS011;24179;52.094;4.408;2024-01-06T10:52:22;0.45;;;0.15;;
38397;SDS011;24179;52.094;4.408;2024-01-06T10:55:24;0.38;;;0.10;;
38397;SDS011;24179;52.094;4.408;2024-01-06T10:58:26;0.52;;;0.20;;
38397;SDS011;24179;52.094;4.408;2024-01-06T11:01:28;1.00;;;0.30;;
38397;SDS011;24179;52.094;4.408;2024-01-06T11:04:30;0.45;;;0.30;;
38397;SDS011;24179;52.094;4.408;2024-01-06T11:07:30;0.30;;;0.20;;
38397;SDS011;24179;52.094;4.408;2024-01-06T11:10:31;0.22;;;0.10;;
38397;SDS011;24179;52.094;4.408;2024-01-06T11:16:34;0.50;;;0.20;;
38397;SDS011;24179;52.094;4.408;2024-01-06T11:22:42;0.50;;;0.13;;
38397;SDS011;24179;52.094;4.408;2024-01-06T11:25:43;0.23;;;0.13;;
38397;SDS011;24179;52.094;4.408;2024-01-06T11:28:47;1.03;;;0.40;;
38397;SDS011;24179;52.094;4.408;2024-01-06T11:35:26;0.30;;;0.20;;
38397;SDS011;24179;52.094;4.408;2024-01-06T11:41:49;1.20;;;0.30;;
38397;SDS011;24179;52.094;4.408;2024-01-06T11:44:52;0.95;;;0.20;;
38397;SDS011;24179;52.094;4.408;2024-01-06T11:48:02;0.63;;;0.20;;
38397;SDS011;24179;52.094;4.408;2024-01-06T11:51:04;2.55;;;0.40;;
38397;SDS011;24179;52.094;4.408;2024-01-06T11:54:05;1.95;;;0.30;;
38397;SDS011;24179;52.094;4.408;2024-01-06T11:57:06;0.70;;;0.20;;
38397;SDS011;24179;52.094;4.408;2024-01-06T12:00:06;0.53;;;0.20;;
38397;SDS011;24179;52.094;4.408;2024-01-06T12:03:07;0.55;;;0.10;;
38397;SDS011;24179;52.094;4.408;2024-01-06T12:06:08;0.85;;;0.20;;
38397;SDS011;24179;52.094;4.408;2024-01-06T12:12:17;1.08;;;0.20;;
38397;SDS011;24179;52.094;4.408;2024-01-06T12:15:18;0.93;;;0.28;;
38397;SDS011;24179;52.094;4.408;2024-01-06T12:18:19;0.83;;;0.30;;
38397;SDS011;24179;52.094;4.408;2024-01-06T12:21:19;0.50;;;0.20;;
38397;SDS011;24179;52.094;4.408;2024-01-06T12:24:20;0.80;;;0.30;;
38397;SDS011;24179;52.094;4.408;2024-01-06T12:27:21;1.02;;;0.30;;
38397;SDS011;24179;52.094;4.408;2024-01-06T12:30:22;0.60;;;0.30;;
38397;SDS011;24179;52.094;4.408;2024-01-06T12:33:22;0.65;;;0.20;;
38397;SDS011;24179;52.094;4.408;2024-01-06T12:36:23;1.57;;;0.40;;
38397;SDS011;24179;52.094;4.408;2024-01-06T12:39:26;0.70;;;0.20;;
38397;SDS011;24179;52.094;4.408;2024-01-06T12:42:28;1.60;;;0.20;;
38397;SDS011;24179;52.094;4.408;2024-01-06T12:45:29;0.87;;;0.20;;
38397;SDS011;24179;52.094;4.408;2024-01-06T12:48:29;0.73;;;0.20;;
38397;SDS011;24179;52.094;4.408;2024-01-06T12:51:30;1.03;;;0.30;;
38397;SDS011;24179;52.094;4.408;2024-01-06T12:54:30;0.93;;;0.30;;
38397;SDS011;24179;52.094;4.408;2024-01-06T12:57:31;1.20;;;0.30;;
38397;SDS011;24179;52.094;4.408;2024-01-06T13:00:32;0.87;;;0.30;;
38397;SDS011;24179;52.094;4.408;2024-01-06T13:03:32;1.47;;;0.40;;
38397;SDS011;24179;52.094;4.408;2024-01-06T13:06:33;0.98;;;0.25;;
38397;SDS011;24179;52.094;4.408;2024-01-06T13:09:34;2.42;;;0.40;;
38397;SDS011;24179;52.094;4.408;2024-01-06T13:12:35;0.80;;;0.30;;
38397;SDS011;24179;52.094;4.408;2024-01-06T13:15:35;0.80;;;0.30;;
38397;SDS011;24179;52.094;4.408;2024-01-06T13:18:36;2.40;;;0.37;;
38397;SDS011;24179;52.094;4.408;2024-01-06T13:21:36;0.93;;;0.30;;
38397;SDS011;24179;52.094;4.408;2024-01-06T13:24:39;0.52;;;0.22;;
38397;SDS011;24179;52.094;4.408;2024-01-06T13:27:40;1.75;;;0.13;;
38397;SDS011;24179;52.094;4.408;2024-01-06T13:30:41;2.23;;;0.50;;
38397;SDS011;24179;52.094;4.408;2024-01-06T13:33:41;0.53;;;0.20;;
38397;SDS011;24179;52.094;4.408;2024-01-06T13:36:42;0.73;;;0.30;;
38397;SDS011;24179;52.094;4.408;2024-01-06T13:39:43;1.13;;;0.23;;
38397;SDS011;24179;52.094;4.408;2024-01-06T13:42:43;1.40;;;0.30;;
38397;SDS011;24179;52.094;4.408;2024-01-06T13:45:44;0.53;;;0.30;;
38397;SDS011;24179;52.094;4.408;2024-01-06T13:48:44;0.63;;;0.20;;
38397;SDS011;24179;52.094;4.408;2024-01-06T13:51:45;0.30;;;0.20;;
38397;SDS011;24179;52.094;4.408;2024-01-06T13:54:46;0.90;;;0.20;;
38397;SDS011;24179;52.094;4.408;2024-01-06T13:57:47;1.35;;;0.43;;
38397;SDS011;24179;52.094;4.408;2024-01-06T14:00:48;0.33;;;0.20;;
38397;SDS011;24179;52.094;4.408;2024-01-06T14:03:48;0.83;;;0.40;;
38397;SDS011;24179;52.094;4.408;2024-01-06T14:06:49;0.30;;;0.20;;
38397;SDS011;24179;52.094;4.408;2024-01-06T14:09:55;2.80;;;0.40;;
38397;SDS011;24179;52.094;4.408;2024-01-06T14:12:56;1.73;;;0.20;;
38397;SDS011;24179;52.094;4.408;2024-01-06T14:15:57;0.60;;;0.30;;
38397;SDS011;24179;52.094;4.408;2024-01-06T14:18:57;1.37;;;0.20;;
38397;SDS011;24179;52.094;4.408;2024-01-06T14:21:58;1.20;;;0.27;;
38397;SDS011;24179;52.094;4.408;2024-01-06T14:24:58;0.90;;;0.30;;
38397;SDS011;24179;52.094;4.408;2024-01-06T14:27:59;1.03;;;0.40;;
38397;SDS011;24179;52.094;4.408;2024-01-06T14:31:00;0.20;;;0.10;;
38397;SDS011;24179;52.094;4.408;2024-01-06T14:34:00;1.10;;;0.33;;
38397;SDS011;24179;52.094;4.408;2024-01-06T14:37:01;1.30;;;0.37;;
38397;SDS011;24179;52.094;4.408;2024-01-06T14:40:01;0.60;;;0.20;;
38397;SDS011;24179;52.094;4.408;2024-01-06T14:43:05;0.77;;;0.30;;
38397;SDS011;24179;52.094;4.408;2024-01-06T14:46:06;1.48;;;0.38;;
38397;SDS011;24179;52.094;4.408;2024-01-06T14:49:07;2.33;;;0.50;;
38397;SDS011;24179;52.094;4.408;2024-01-06T14:55:09;0.77;;;0.20;;
38397;SDS011;24179;52.094;4.408;2024-01-06T14:58:10;0.93;;;0.30;;
38397;SDS011;24179;52.094;4.408;2024-01-06T15:01:10;0.73;;;0.20;;
38397;SDS011;24179;52.094;4.408;2024-01-06T15:04:11;1.87;;;0.37;;
38397;SDS011;24179;52.094;4.408;2024-01-06T15:07:12;1.10;;;0.37;;
38397;SDS011;24179;52.094;4.408;2024-01-06T15:10:12;0.63;;;0.40;;
38397;SDS011;24179;52.094;4.408;2024-01-06T15:13:14;1.48;;;0.40;;
38397;SDS011;24179;52.094;4.408;2024-01-06T15:16:15;0.83;;;0.30;;
38397;SDS011;24179;52.094;4.408;2024-01-06T15:19:15;1.13;;;0.43;;
38397;SDS011;24179;52.094;4.408;2024-01-06T15:22:16;1.03;;;0.40;;
38397;SDS011;24179;52.094;4.408;2024-01-06T15:25:16;0.80;;;0.30;;
38397;SDS011;24179;52.094;4.408;2024-01-06T15:28:18;1.08;;;0.25;;
38397;SDS011;24179;52.094;4.408;2024-01-06T15:31:20;1.70;;;0.57;;
38397;SDS011;24179;52.094;4.408;2024-01-06T15:34:20;0.80;;;0.30;;
38397;SDS011;24179;52.094;4.408;2024-01-06T15:37:22;1.40;;;0.47;;
38397;SDS011;24179;52.094;4.408;2024-01-06T15:40:23;0.87;;;0.43;;
38397;SDS011;24179;52.094;4.408;2024-01-06T15:43:24;1.13;;;0.47;;
38397;SDS011;24179;52.094;4.408;2024-01-06T15:46:24;0.80;;;0.30;;
38397;SDS011;24179;52.094;4.408;2024-01-06T15:49:25;0.80;;;0.40;;
38397;SDS011;24179;52.094;4.408;2024-01-06T15:52:27;1.15;;;0.32;;
38397;SDS011;24179;52.094;4.408;2024-01-06T15:55:27;2.07;;;0.30;;
38397;SDS011;24179;52.094;4.408;2024-01-06T15:58:28;2.17;;;0.47;;
38397;SDS011;24179;52.094;4.408;2024-01-06T16:01:28;0.90;;;0.23;;
38397;SDS011;24179;52.094;4.408;2024-01-06T16:04:29;1.53;;;0.40;;
38397;SDS011;24179;52.094;4.408;2024-01-06T16:07:30;1.15;;;0.38;;
38397;SDS011;24179;52.094;4.408;2024-01-06T16:10:31;0.90;;;0.30;;
38397;SDS011;24179;52.094;4.408;2024-01-06T16:13:31;1.30;;;0.37;;
38397;SDS011;24179;52.094;4.408;2024-01-06T16:16:32;1.40;;;0.40;;
38397;SDS011;24179;52.094;4.408;2024-01-06T16:19:33;0.90;;;0.40;;
38397;SDS011;24179;52.094;4.408;2024-01-06T16:22:33;1.40;;;0.33;;
38397;SDS011;24179;52.094;4.408;2024-01-06T16:25:36;1.67;;;0.40;;
38397;SDS011;24179;52.094;4.408;2024-01-06T16:28:38;1.35;;;0.47;;
38397;SDS011;24179;52.094;4.408;2024-01-06T16:31:39;1.33;;;0.40;;
38397;SDS011;24179;52.094;4.408;2024-01-06T16:34:39;1.80;;;0.47;;
38397;SDS011;24179;52.094;4.408;2024-01-06T16:37:41;1.55;;;0.40;;
38397;SDS011;24179;52.094;4.408;2024-01-06T16:40:42;1.23;;;0.57;;
38397;SDS011;24179;52.094;4.408;2024-01-06T16:43:43;1.75;;;0.50;;
38397;SDS011;24179;52.094;4.408;2024-01-06T16:46:44;1.90;;;0.50;;
38397;SDS011;24179;52.094;4.408;2024-01-06T16:49:44;1.77;;;0.50;;
38397;SDS011;24179;52.094;4.408;2024-01-06T16:52:45;1.67;;;0.50;;
38397;SDS011;24179;52.094;4.408;2024-01-06T16:55:46;1.03;;;0.50;;
38397;SDS011;24179;52.094;4.408;2024-01-06T16:58:46;1.60;;;0.60;;
38397;SDS011;24179;52.094;4.408;2024-01-06T17:01:47;0.63;;;0.23;;
38397;SDS011;24179;52.094;4.408;2024-01-06T17:04:47;1.30;;;0.40;;
38397;SDS011;24179;52.094;4.408;2024-01-06T17:07:48;0.80;;;0.40;;
38397;SDS011;24179;52.094;4.408;2024-01-06T17:10:49;0.68;;;0.40;;
38397;SDS011;24179;52.094;4.408;2024-01-06T17:13:49;1.57;;;0.33;;
38397;SDS011;24179;52.094;4.408;2024-01-06T17:16:50;0.93;;;0.23;;
38397;SDS011;24179;52.094;4.408;2024-01-06T17:19:51;0.68;;;0.30;;
38397;SDS011;24179;52.094;4.408;2024-01-06T19:11:58;16.25;;;15.15;;
38397;SDS011;24179;52.094;4.408;2024-01-06T19:14:59;15.85;;;14.43;;
38397;SDS011;24179;52.094;4.408;2024-01-06T19:18:00;14.80;;;13.60;;
38397;SDS011;24179;52.094;4.408;2024-01-06T19:21:00;14.47;;;13.33;;
38397;SDS011;24179;52.094;4.408;2024-01-06T19:24:01;15.17;;;14.00;;
38397;SDS011;24179;52.094;4.408;2024-01-06T19:30:03;14.57;;;13.47;;
38397;SDS011;24179;52.094;4.408;2024-01-06T19:36:05;13.57;;;12.50;;
38397;SDS011;24179;52.094;4.408;2024-01-06T19:39:09;13.77;;;12.68;;
38397;SDS011;24179;52.094;4.408;2024-01-06T19:42:09;14.10;;;12.80;;
38397;SDS011;24179;52.094;4.408;2024-01-06T19:45:10;15.10;;;13.70;;
38397;SDS011;24179;52.094;4.408;2024-01-06T19:48:10;13.87;;;12.63;;
38397;SDS011;24179;52.094;4.408;2024-01-06T19:51:11;14.73;;;13.20;;
38397;SDS011;24179;52.094;4.408;2024-01-06T19:54:12;13.70;;;12.60;;
38397;SDS011;24179;52.094;4.408;2024-01-06T19:57:13;13.70;;;12.52;;
38397;SDS011;24179;52.094;4.408;2024-01-06T20:00:16;13.90;;;12.80;;
38397;SDS011;24179;52.094;4.408;2024-01-06T20:03:17;13.93;;;12.80;;
38397;SDS011;24179;52.094;4.408;2024-01-06T20:06:17;14.23;;;12.83;;
38397;SDS011;24179;52.094;4.408;2024-01-06T20:09:19;13.43;;;12.32;;
38397;SDS011;24179;52.094;4.408;2024-01-06T20:12:19;14.50;;;13.07;;
38397;SDS011;24179;52.094;4.408;2024-01-06T20:15:20;13.50;;;12.30;;
38397;SDS011;24179;52.094;4.408;2024-01-06T20:18:21;13.73;;;12.53;;
38397;SDS011;24179;52.094;4.408;2024-01-06T20:24:23;13.50;;;12.30;;
38397;SDS011;24179;52.094;4.408;2024-01-06T20:27:24;12.15;;;11.25;;
38397;SDS011;24179;52.094;4.408;2024-01-06T20:30:25;12.70;;;11.50;;
38397;SDS011;24179;52.094;4.408;2024-01-06T20:33:25;13.20;;;12.00;;